createdAt,value
2023-02-17T00:01:58.597Z,23.17
2023-02-17T00:04:44.125Z,26.38
2023-02-17T00:07:32.483Z,27.98
2023-02-17T00:10:18.591Z,27.98
2023-02-17T00:13:04.224Z,30.95
2023-02-17T00:15:52.826Z,28.27
2023-02-17T00:18:38.071Z,31.33
2023-02-17T00:21:26.693Z,29.25
2023-02-17T00:24:11.928Z,31.50
2023-02-17T00:26:58.056Z,30.90
2023-02-17T00:29:43.634Z,28.83
2023-02-17T00:32:32.299Z,29.92
2023-02-17T00:35:18.012Z,28.70
2023-02-17T00:38:03.327Z,30.10
2023-02-17T00:40:48.889Z,32.85
2023-02-17T00:43:34.566Z,32.05
2023-02-17T00:46:23.118Z,34.65
2023-02-17T00:49:19.801Z,32.65
2023-02-17T00:52:05.713Z,34.70
2023-02-17T00:54:52.345Z,32.95
2023-02-17T00:57:37.614Z,35.05
2023-02-17T01:00:23.129Z,36.03
2023-02-17T01:03:09.147Z,35.47
2023-02-17T01:05:55.531Z,35.08
2023-02-17T01:08:41.013Z,33.85
2023-02-17T01:11:30.293Z,34.83
2023-02-17T01:14:16.694Z,33.17
2023-02-17T01:17:01.999Z,31.08
2023-02-17T01:19:50.312Z,30.55
2023-02-17T01:22:38.706Z,30.65
2023-02-17T01:25:24.200Z,31.25
2023-02-17T01:28:15.630Z,29.40
2023-02-17T01:31:07.210Z,29.60
2023-02-17T01:33:56.873Z,28.45
2023-02-17T01:36:42.092Z,27.70
2023-02-17T01:39:29.146Z,27.13
2023-02-17T01:42:17.324Z,23.77
2023-02-17T01:45:57.541Z,24.67
2023-02-17T01:48:51.386Z,24.05
2023-02-17T01:51:39.389Z,22.60
2023-02-17T01:54:30.347Z,23.45
2023-02-17T01:57:19.098Z,23.45
2023-02-17T02:00:07.402Z,22.40
2023-02-17T02:02:59.634Z,22.45
2023-02-17T02:05:45.568Z,24.00
2023-02-17T02:08:39.987Z,21.52
2023-02-17T02:11:33.127Z,23.70
2023-02-17T02:14:23.089Z,23.88
2023-02-17T02:17:26.981Z,23.48
2023-02-17T02:20:26.155Z,22.90
2023-02-17T02:23:36.271Z,25.13
2023-02-17T02:26:49.158Z,23.48
2023-02-17T02:29:59.807Z,23.95
2023-02-17T02:33:14.710Z,23.17
2023-02-17T02:36:27.216Z,24.77
2023-02-17T02:39:21.205Z,25.88
2023-02-17T02:42:11.234Z,25.98
2023-02-17T02:44:56.686Z,25.65
2023-02-17T02:47:54.464Z,27.38
2023-02-17T02:51:05.805Z,28.92
2023-02-17T02:57:00.117Z,30.50
2023-02-17T03:00:08.679Z,29.23
2023-02-17T03:03:12.480Z,31.55
2023-02-17T03:06:13.263Z,31.73
2023-02-17T03:09:22.209Z,32.85
2023-02-17T03:12:07.679Z,33.50
2023-02-17T03:15:03.430Z,34.17
2023-02-17T03:17:49.166Z,35.42
2023-02-17T03:21:10.341Z,34.65
2023-02-17T03:23:55.781Z,35.33
2023-02-17T03:26:41.512Z,35.40
2023-02-17T03:29:27.346Z,30.67
2023-02-17T03:32:12.958Z,30.25
2023-02-17T03:34:58.635Z,29.77
2023-02-17T03:37:44.268Z,31.42
2023-02-17T03:40:29.843Z,32.70
2023-02-17T03:43:17.904Z,34.38
2023-02-17T03:46:03.663Z,36.40
2023-02-17T03:48:49.336Z,36.72
2023-02-17T03:51:34.689Z,40.45
2023-02-17T03:54:20.326Z,40.53
2023-02-17T03:57:05.897Z,40.63
2023-02-17T03:59:51.540Z,38.30
2023-02-17T04:02:36.817Z,39.60
2023-02-17T04:05:22.597Z,34.70
2023-02-17T04:08:08.068Z,36.45
2023-02-17T04:10:55.148Z,35.58
2023-02-17T04:13:40.862Z,34.10
2023-02-17T04:16:26.412Z,32.83
2023-02-17T04:19:11.958Z,31.80
2023-02-17T04:21:59.735Z,32.28
2023-02-17T04:24:45.154Z,32.00
2023-02-17T04:27:30.682Z,30.80
2023-02-17T04:30:16.446Z,32.55
2023-02-17T04:33:01.584Z,32.10
2023-02-17T04:35:48.068Z,32.67
2023-02-17T04:38:34.792Z,32.58
2023-02-17T04:41:20.701Z,31.60
2023-02-17T04:44:06.326Z,29.80
2023-02-17T04:46:54.991Z,29.15
2023-02-17T04:49:40.318Z,29.38
2023-02-17T04:52:25.875Z,29.02
2023-02-17T04:55:11.523Z,27.98
2023-02-17T04:57:57.391Z,25.42
2023-02-17T05:00:42.994Z,28.95
2023-02-17T05:03:28.490Z,28.70
2023-02-17T05:06:13.656Z,27.58
2023-02-17T05:08:59.201Z,29.30
2023-02-17T05:11:44.852Z,29.58
2023-02-17T05:14:30.182Z,29.92
2023-02-17T05:17:18.315Z,29.65
2023-02-17T05:20:05.709Z,31.02
2023-02-17T05:22:53.545Z,30.77
2023-02-17T05:25:41.035Z,28.30
2023-02-17T05:28:26.489Z,30.92
2023-02-17T05:31:13.524Z,35.17
2023-02-17T05:33:59.202Z,34.05
2023-02-17T05:36:45.715Z,35.65
2023-02-17T05:39:31.485Z,34.28
2023-02-17T05:42:16.808Z,36.30
2023-02-17T05:45:02.469Z,33.97
2023-02-17T05:47:47.849Z,31.02
2023-02-17T05:50:33.593Z,36.70
2023-02-17T05:53:21.835Z,33.15
2023-02-17T05:56:07.485Z,33.60
2023-02-17T05:58:53.232Z,30.55
2023-02-17T06:01:46.917Z,30.38
2023-02-17T06:04:32.668Z,28.00
2023-02-17T06:07:18.222Z,28.92
2023-02-17T06:10:03.931Z,29.58
2023-02-17T06:12:49.410Z,29.45
2023-02-17T06:15:34.702Z,28.80
2023-02-17T06:18:20.411Z,29.25
2023-02-17T06:21:05.988Z,28.77
2023-02-17T06:23:52.271Z,27.35
2023-02-17T06:26:38.957Z,29.70
2023-02-17T06:29:27.838Z,28.23
2023-02-17T06:32:13.493Z,26.38
2023-02-17T06:34:59.067Z,22.83
2023-02-17T06:37:44.744Z,25.70
2023-02-17T06:40:32.862Z,23.52
2023-02-17T06:43:18.426Z,25.58
2023-02-17T06:46:28.641Z,23.33
2023-02-17T06:49:15.120Z,24.38
2023-02-17T06:52:05.915Z,21.10
2023-02-17T06:54:54.287Z,20.55
2023-02-17T06:57:39.697Z,23.23
2023-02-17T07:00:25.572Z,24.35
2023-02-17T07:03:11.044Z,25.50
2023-02-17T07:05:59.915Z,23.27
2023-02-17T07:08:45.634Z,22.63
2023-02-17T07:11:32.851Z,24.77
2023-02-17T07:14:18.123Z,20.33
2023-02-17T07:17:04.289Z,19.75
2023-02-17T07:19:49.627Z,20.10
2023-02-17T07:22:35.268Z,18.15
2023-02-17T07:25:21.022Z,17.77
2023-02-17T07:28:06.311Z,17.77
2023-02-17T07:30:56.153Z,18.88
2023-02-17T07:33:42.080Z,18.45
2023-02-17T07:36:27.939Z,22.50
2023-02-17T07:39:14.240Z,21.80
2023-02-17T07:42:05.001Z,21.70
2023-02-17T07:44:52.739Z,23.02
2023-02-17T07:47:39.801Z,20.95
2023-02-17T07:50:25.438Z,21.40
2023-02-17T07:53:11.068Z,20.73
2023-02-17T07:55:58.717Z,20.10
2023-02-17T07:58:45.321Z,19.63
2023-02-17T08:01:30.596Z,19.65
2023-02-17T08:04:16.527Z,22.85
2023-02-17T08:07:05.833Z,22.95
2023-02-17T08:10:09.812Z,19.67
2023-02-17T08:13:15.161Z,22.38
2023-02-17T08:16:00.875Z,21.27
2023-02-17T08:18:46.469Z,22.38
2023-02-17T08:21:32.210Z,22.75
2023-02-17T08:24:21.030Z,20.98
2023-02-17T08:27:06.807Z,22.80
2023-02-17T08:29:55.860Z,23.52
2023-02-17T08:32:44.906Z,21.58
2023-02-17T08:35:30.575Z,20.88
2023-02-17T08:38:16.318Z,17.65
2023-02-17T08:41:01.604Z,17.92
2023-02-17T08:43:47.508Z,16.50
2023-02-17T08:46:37.685Z,17.67
2023-02-17T08:49:25.567Z,17.50
2023-02-17T08:52:13.525Z,15.65
2023-02-17T08:54:59.374Z,14.32
2023-02-17T08:57:44.962Z,14.57
2023-02-17T09:00:30.123Z,15.35
2023-02-17T09:03:15.695Z,15.73
2023-02-17T09:06:04.023Z,15.70
2023-02-17T09:08:52.283Z,15.25
2023-02-17T09:11:38.354Z,13.80
2023-02-17T09:14:32.994Z,13.85
2023-02-17T09:17:18.458Z,13.82
2023-02-17T09:20:09.188Z,13.70
2023-02-17T09:22:56.986Z,14.85
2023-02-17T09:25:42.345Z,15.10
2023-02-17T09:28:28.116Z,14.32
2023-02-17T09:31:17.118Z,15.73
2023-02-17T09:34:04.243Z,15.85
2023-02-17T09:36:50.848Z,15.68
2023-02-17T09:39:36.596Z,15.38
2023-02-17T09:42:25.345Z,16.08
2023-02-17T09:45:17.012Z,19.52
2023-02-17T09:48:08.084Z,15.05
2023-02-17T09:51:05.092Z,18.60
2023-02-17T09:53:57.145Z,16.50
2023-02-17T09:56:49.170Z,18.08
2023-02-17T09:59:45.430Z,17.23
2023-02-17T10:02:44.757Z,16.35
2023-02-17T10:05:40.473Z,15.45
2023-02-17T10:08:35.139Z,16.40
2023-02-17T10:11:44.516Z,15.35
2023-02-17T10:14:54.692Z,15.05
2023-02-17T10:17:39.963Z,16.85
2023-02-17T10:20:31.469Z,15.85
2023-02-17T10:23:21.413Z,14.93
2023-02-17T10:26:45.306Z,13.43
2023-02-17T10:29:49.832Z,11.73
2023-02-17T10:32:48.874Z,12.75
2023-02-17T10:35:53.513Z,12.35
2023-02-17T10:38:49.163Z,10.90
2023-02-17T10:41:38.055Z,12.63
2023-02-17T10:44:25.631Z,11.18
2023-02-17T10:47:11.548Z,11.60
2023-02-17T10:50:01.499Z,12.55
2023-02-17T10:52:49.296Z,10.15
2023-02-17T10:55:44.436Z,10.23
2023-02-17T11:01:23.385Z,12.32
2023-02-17T11:04:13.435Z,12.90
2023-02-17T11:07:01.999Z,11.63
2023-02-17T11:09:55.524Z,11.90
2023-02-17T11:12:42.251Z,12.07
2023-02-17T11:15:46.981Z,11.05
2023-02-17T11:18:38.114Z,9.57
2023-02-17T11:21:23.813Z,10.40
2023-02-17T11:24:11.592Z,8.60
2023-02-17T11:27:04.506Z,9.70
2023-02-17T11:29:53.869Z,9.40
2023-02-17T11:32:39.380Z,8.90
2023-02-17T11:35:37.904Z,7.90
2023-02-17T11:38:32.632Z,8.38
2023-02-17T11:41:21.350Z,8.73
2023-02-17T11:44:12.565Z,8.00
2023-02-17T11:47:16.089Z,8.95
2023-02-17T11:50:41.967Z,7.95
2023-02-17T11:53:46.389Z,8.38
2023-02-17T11:56:41.126Z,7.22
2023-02-17T11:59:49.910Z,7.03
2023-02-17T12:02:54.310Z,8.88
2023-02-17T12:06:02.089Z,8.18
2023-02-17T12:09:00.270Z,7.95
2023-02-17T12:11:55.980Z,8.75
2023-02-17T12:14:59.417Z,8.27
2023-02-17T12:17:50.081Z,7.90
2023-02-17T12:20:50.933Z,7.00
2023-02-17T12:23:50.119Z,7.22
2023-02-17T12:27:05.546Z,6.38
2023-02-17T12:30:28.009Z,6.57
2023-02-17T12:33:18.825Z,5.63
2023-02-17T12:36:14.669Z,6.75
2023-02-17T12:39:22.890Z,5.15
2023-02-17T12:42:17.770Z,5.03
2023-02-17T12:45:10.613Z,5.70
2023-02-17T12:48:00.505Z,4.75
2023-02-17T12:51:13.861Z,5.32
2023-02-17T12:54:17.136Z,5.85
2023-02-17T12:57:27.295Z,5.80
2023-02-17T13:00:20.672Z,5.38
2023-02-17T13:03:06.638Z,5.20
2023-02-17T13:05:58.713Z,5.90
2023-02-17T13:09:09.004Z,5.15
2023-02-17T13:11:54.404Z,5.05
2023-02-17T13:14:51.377Z,5.50
2023-02-17T13:17:36.948Z,5.70
2023-02-17T13:20:37.058Z,5.38
2023-02-17T13:23:39.342Z,5.53
2023-02-17T13:26:34.455Z,5.53
2023-02-17T13:32:13.285Z,5.65
2023-02-17T13:35:06.868Z,5.63
2023-02-17T13:37:52.760Z,6.53
2023-02-17T13:40:43.813Z,5.47
2023-02-17T13:43:33.812Z,5.20
2023-02-17T13:46:25.151Z,4.88
2023-02-17T13:49:22.538Z,5.45
2023-02-17T13:52:23.169Z,6.93
2023-02-17T13:55:19.243Z,5.70
2023-02-17T13:58:04.590Z,5.60
2023-02-17T14:00:50.842Z,5.70
2023-02-17T14:03:51.870Z,6.97
2023-02-17T14:06:38.154Z,5.38
2023-02-17T14:09:35.313Z,5.63
2023-02-17T14:12:25.999Z,5.45
2023-02-17T14:15:17.121Z,4.82
2023-02-17T14:18:15.725Z,5.95
2023-02-17T14:21:28.058Z,5.95
2023-02-17T14:24:33.499Z,4.93
2023-02-17T14:27:19.044Z,5.40
2023-02-17T14:30:12.715Z,4.72
2023-02-17T14:33:23.692Z,5.68
2023-02-17T14:36:11.435Z,4.75
2023-02-17T14:38:58.647Z,6.15
2023-02-17T14:41:51.582Z,5.18
2023-02-17T14:44:37.146Z,5.00
2023-02-17T14:47:22.766Z,5.38
2023-02-17T14:50:08.365Z,6.03
2023-02-17T14:52:56.010Z,4.40
2023-02-17T14:55:46.771Z,4.90
2023-02-17T14:58:32.904Z,4.63
2023-02-17T15:01:21.097Z,4.55
2023-02-17T15:04:06.942Z,4.95
2023-02-17T15:07:02.166Z,4.82
2023-02-17T15:09:49.012Z,5.22
2023-02-17T15:12:34.534Z,5.55
2023-02-17T15:15:20.043Z,5.43
2023-02-17T15:18:05.379Z,5.20
2023-02-17T15:20:52.086Z,4.55
2023-02-17T15:23:37.741Z,5.40
2023-02-17T15:26:24.086Z,5.20
2023-02-17T15:29:22.146Z,5.55
2023-02-17T15:32:16.042Z,4.93
2023-02-17T15:35:01.924Z,4.95
2023-02-17T15:37:48.395Z,5.45
2023-02-17T15:40:34.518Z,5.05
2023-02-17T15:43:21.868Z,5.03
2023-02-17T15:46:15.374Z,5.30
2023-02-17T15:49:00.910Z,6.60
2023-02-17T15:51:49.096Z,5.32
2023-02-17T15:54:34.637Z,4.78
2023-02-17T15:57:23.457Z,5.25
2023-02-17T16:00:33.192Z,5.57
2023-02-17T16:03:18.958Z,5.03
2023-02-17T16:06:04.890Z,5.40
2023-02-17T16:08:53.253Z,5.53
2023-02-17T16:11:48.332Z,5.93
2023-02-17T16:14:36.495Z,4.82
2023-02-17T16:17:25.389Z,6.53
2023-02-17T16:20:20.941Z,5.90
2023-02-17T16:23:06.604Z,6.57
2023-02-17T16:26:01.097Z,6.00
2023-02-17T16:28:46.930Z,4.83
2023-02-17T16:31:33.092Z,5.43
2023-02-17T16:34:21.444Z,4.78
2023-02-17T16:37:14.838Z,5.32
2023-02-17T16:40:04.065Z,5.57
2023-02-17T16:42:49.435Z,5.35
2023-02-17T16:45:35.249Z,6.13
2023-02-17T16:48:26.239Z,5.65
2023-02-17T16:51:11.356Z,6.28
2023-02-17T16:53:57.048Z,5.72
2023-02-17T16:56:48.604Z,6.43
2023-02-17T16:59:34.520Z,6.43
2023-02-17T17:02:23.305Z,6.03
2023-02-17T17:05:17.039Z,5.50
2023-02-17T17:08:03.277Z,5.60
2023-02-17T17:10:49.531Z,5.93
2023-02-17T17:13:35.098Z,5.50
2023-02-17T17:16:26.874Z,5.65
2023-02-17T17:19:13.268Z,5.82
2023-02-17T17:21:58.700Z,5.78
2023-02-17T17:24:46.840Z,6.18
2023-02-17T17:27:32.621Z,5.88
2023-02-17T17:30:29.061Z,6.20
2023-02-17T17:33:15.003Z,5.47
2023-02-17T17:36:00.508Z,6.07
2023-02-17T17:38:48.728Z,7.78
2023-02-17T17:41:35.140Z,6.18
2023-02-17T17:44:29.433Z,6.25
2023-02-17T17:47:28.037Z,5.45
2023-02-17T17:50:23.854Z,6.32
2023-02-17T17:53:09.489Z,6.25
2023-02-17T17:55:54.875Z,6.38
2023-02-17T17:58:43.485Z,7.95
2023-02-17T18:01:29.087Z,6.20
2023-02-17T18:04:14.396Z,6.07
2023-02-17T18:07:00.137Z,6.75
2023-02-17T18:09:47.401Z,6.50
2023-02-17T18:12:36.925Z,6.65
2023-02-17T18:15:22.716Z,6.30
2023-02-17T18:18:08.569Z,5.75
2023-02-17T18:20:54.496Z,6.18
2023-02-17T18:23:39.808Z,6.45
2023-02-17T18:26:25.521Z,6.78
2023-02-17T18:29:11.274Z,8.10
2023-02-17T18:31:59.196Z,5.65
2023-02-17T18:34:44.720Z,6.55
2023-02-17T18:37:30.866Z,7.05
2023-02-17T18:40:19.030Z,7.85
2023-02-17T18:43:09.057Z,7.72
2023-02-17T18:45:54.404Z,9.85
2023-02-17T18:48:39.581Z,12.00
2023-02-17T18:51:27.788Z,11.50
2023-02-17T18:54:14.097Z,11.73
2023-02-17T18:56:59.643Z,11.70
2023-02-17T18:59:45.863Z,12.45
2023-02-17T19:02:32.749Z,12.10
2023-02-17T19:05:18.548Z,13.07
2023-02-17T19:08:04.090Z,13.05
2023-02-17T19:10:51.919Z,12.30
2023-02-17T19:13:37.881Z,13.63
2023-02-17T19:16:27.066Z,12.70
2023-02-17T19:19:12.763Z,11.40
2023-02-17T19:21:58.447Z,12.05
2023-02-17T19:24:44.305Z,11.07
2023-02-17T19:27:29.829Z,12.00
2023-02-17T19:30:15.357Z,11.85
2023-02-17T19:33:00.615Z,13.38
2023-02-17T19:35:46.199Z,12.60
2023-02-17T19:38:34.400Z,11.93
2023-02-17T19:41:20.155Z,13.40
2023-02-17T19:44:05.752Z,11.98
2023-02-17T19:46:51.475Z,11.88
2023-02-17T19:49:37.081Z,11.45
2023-02-17T19:52:23.311Z,11.38
2023-02-17T19:55:21.445Z,10.05
2023-02-17T19:58:06.693Z,10.45
2023-02-17T20:00:55.574Z,9.52
2023-02-17T20:03:46.100Z,10.43
2023-02-17T20:06:40.577Z,9.73
2023-02-17T20:09:26.117Z,9.60
2023-02-17T20:12:11.813Z,10.15
2023-02-17T20:14:57.508Z,10.32
2023-02-17T20:17:43.161Z,10.60
2023-02-17T20:20:28.669Z,9.93
2023-02-17T20:23:14.057Z,11.52
2023-02-17T20:25:59.701Z,10.85
2023-02-17T20:28:48.386Z,11.18
2023-02-17T20:31:36.372Z,10.35
2023-02-17T20:34:32.725Z,12.68
2023-02-17T20:37:18.151Z,12.20
2023-02-17T20:40:04.046Z,11.32
2023-02-17T20:42:49.312Z,12.00
2023-02-17T20:45:35.063Z,13.25
2023-02-17T20:48:21.802Z,12.60
2023-02-17T20:51:08.794Z,13.27
2023-02-17T20:53:54.298Z,13.63
2023-02-17T20:56:42.246Z,13.50
2023-02-17T20:59:28.044Z,13.77
2023-02-17T21:02:13.741Z,14.68
2023-02-17T21:04:59.484Z,14.40
2023-02-17T21:07:44.738Z,13.65
2023-02-17T21:10:31.708Z,15.55
2023-02-17T21:13:17.382Z,16.55
2023-02-17T21:16:05.739Z,15.73
2023-02-17T21:18:54.041Z,16.10
2023-02-17T21:21:40.909Z,16.48
2023-02-17T21:24:26.252Z,16.65
2023-02-17T21:27:14.924Z,16.05
2023-02-17T21:30:00.248Z,15.77
2023-02-17T21:32:45.821Z,17.48
2023-02-17T21:35:34.243Z,16.92
2023-02-17T21:38:21.656Z,16.00
2023-02-17T21:41:13.573Z,16.23
2023-02-17T21:44:20.728Z,16.13
2023-02-17T21:47:06.163Z,17.05
2023-02-17T21:49:57.976Z,17.08
2023-02-17T21:52:46.493Z,16.80
2023-02-17T21:55:32.382Z,15.63
2023-02-17T21:58:20.074Z,16.63
2023-02-17T22:01:06.865Z,16.55
2023-02-17T22:03:52.767Z,15.52
2023-02-17T22:06:40.797Z,15.23
2023-02-17T22:09:26.134Z,15.23
2023-02-17T22:12:11.816Z,17.27
2023-02-17T22:14:57.518Z,17.52
2023-02-17T22:17:48.043Z,19.77
2023-02-17T22:20:42.495Z,19.00
2023-02-17T22:23:27.785Z,17.40
2023-02-17T22:26:22.286Z,19.05
2023-02-17T22:29:11.259Z,18.37
2023-02-17T22:31:57.269Z,17.98
2023-02-17T22:34:43.277Z,18.60
2023-02-17T22:37:31.538Z,17.92
2023-02-17T22:40:17.439Z,17.77
2023-02-17T22:43:02.804Z,18.38
2023-02-17T22:45:50.998Z,18.20
2023-02-17T22:48:38.336Z,20.05
2023-02-17T22:51:29.317Z,19.88
2023-02-17T22:54:14.559Z,18.80
2023-02-17T22:57:00.288Z,21.20
2023-02-17T22:59:45.800Z,19.20
2023-02-17T23:02:34.792Z,18.95
2023-02-17T23:05:20.373Z,19.52
2023-02-17T23:08:05.781Z,17.83
2023-02-17T23:10:51.292Z,17.63
2023-02-17T23:13:46.115Z,18.65
2023-02-17T23:16:34.345Z,18.92
2023-02-17T23:19:21.356Z,22.63
2023-02-17T23:22:17.937Z,23.08
2023-02-17T23:25:05.126Z,23.40
2023-02-17T23:27:50.775Z,24.08
2023-02-17T23:30:36.214Z,24.95
2023-02-17T23:33:23.833Z,23.77
2023-02-17T23:36:09.861Z,27.70
2023-02-17T23:38:57.482Z,31.15
2023-02-17T23:41:43.662Z,35.30
2023-02-17T23:44:31.752Z,36.53
2023-02-17T23:47:17.265Z,36.78
2023-02-17T23:50:02.982Z,38.08
2023-02-17T23:52:48.389Z,39.10
2023-02-17T23:55:34.172Z,37.25
2023-02-17T23:58:19.725Z,39.65
